createdAt,value
2023-06-16T00:01:24.328Z,22.20
2023-06-16T00:06:30.710Z,22.30
2023-06-16T00:11:34.456Z,22.60
2023-06-16T00:16:38.124Z,22.30
2023-06-16T00:21:45.978Z,22.30
2023-06-16T00:26:49.134Z,22.70
2023-06-16T00:31:52.299Z,22.50
2023-06-16T00:36:56.992Z,22.60
2023-06-16T00:42:00.245Z,23.30
2023-06-16T00:47:04.186Z,23.20
2023-06-16T00:52:11.822Z,23.40
2023-06-16T00:57:15.569Z,24.80
2023-06-16T01:02:19.955Z,24.00
2023-06-16T01:07:31.409Z,24.40
2023-06-16T01:12:41.497Z,25.20
2023-06-16T01:17:47.887Z,25.60
2023-06-16T01:23:08.650Z,25.10
2023-06-16T01:28:14.093Z,26.10
2023-06-16T01:33:18.410Z,25.40
2023-06-16T01:38:23.106Z,25.00
2023-06-16T01:43:28.598Z,25.30
2023-06-16T01:48:32.454Z,25.70
2023-06-16T01:53:35.597Z,25.20
2023-06-16T01:58:40.898Z,25.20
2023-06-16T02:03:48.011Z,25.50
2023-06-16T02:08:54.549Z,25.60
2023-06-16T02:13:59.434Z,25.60
2023-06-16T02:19:03.086Z,25.30
2023-06-16T02:24:06.877Z,24.80
2023-06-16T02:29:11.695Z,24.90
2023-06-16T02:34:14.928Z,25.20
2023-06-16T02:39:19.780Z,25.00
2023-06-16T02:44:24.298Z,25.00
2023-06-16T02:49:27.479Z,25.30
2023-06-16T02:54:30.783Z,25.10
2023-06-16T02:59:35.877Z,25.10
2023-06-16T03:04:39.536Z,25.40
2023-06-16T03:09:43.092Z,25.10
2023-06-16T03:14:49.698Z,25.30
2023-06-16T03:19:53.244Z,26.00
2023-06-16T03:24:56.408Z,25.80
2023-06-16T03:30:01.315Z,25.80
2023-06-16T03:35:04.535Z,26.50
2023-06-16T03:40:09.812Z,26.20
2023-06-16T03:45:14.920Z,26.60
2023-06-16T03:50:18.364Z,27.00
2023-06-16T03:55:22.104Z,26.90
2023-06-16T04:00:26.707Z,27.20
2023-06-16T04:05:31.077Z,27.70
2023-06-16T04:10:34.398Z,27.20
2023-06-16T04:15:38.954Z,27.20
2023-06-16T04:20:42.076Z,27.80
2023-06-16T04:25:45.288Z,27.20
2023-06-16T04:30:50.517Z,27.20
2023-06-16T04:35:53.729Z,27.80
2023-06-16T04:40:57.011Z,27.50
2023-06-16T04:46:01.843Z,27.50
2023-06-16T04:51:05.381Z,28.00
2023-06-16T04:56:10.360Z,27.70
2023-06-16T05:01:15.772Z,28.10
2023-06-16T05:06:18.986Z,28.90
2023-06-16T05:11:22.269Z,28.50
2023-06-16T05:16:27.490Z,28.60
2023-06-16T05:21:30.625Z,29.50
2023-06-16T05:26:33.763Z,29.20
2023-06-16T05:31:39.058Z,29.30
2023-06-16T05:36:42.176Z,30.10
2023-06-16T05:41:45.477Z,29.60
2023-06-16T05:46:49.968Z,29.70
2023-06-16T05:51:53.555Z,30.40
2023-06-16T05:56:57.389Z,30.00
2023-06-16T06:02:01.981Z,30.20
2023-06-16T06:07:05.679Z,30.90
2023-06-16T06:12:10.499Z,30.70
2023-06-16T06:17:15.087Z,30.80
2023-06-16T06:22:18.267Z,31.00
2023-06-16T06:27:21.367Z,30.50
2023-06-16T06:32:25.880Z,30.30
2023-06-16T06:37:31.909Z,30.70
2023-06-16T06:42:35.087Z,30.20
2023-06-16T06:47:39.773Z,29.90
2023-06-16T06:52:42.987Z,30.20
2023-06-16T06:57:46.188Z,29.90
2023-06-16T07:02:50.767Z,29.60
2023-06-16T07:07:53.978Z,29.20
2023-06-16T07:12:57.112Z,28.70
2023-06-16T07:18:01.646Z,28.30
2023-06-16T07:23:04.905Z,28.30
2023-06-16T07:28:09.038Z,27.80
2023-06-16T07:33:13.760Z,27.90
2023-06-16T07:38:17.043Z,27.20
2023-06-16T07:43:22.329Z,27.40
2023-06-16T07:48:26.906Z,27.50
2023-06-16T07:53:30.046Z,26.80
2023-06-16T07:58:33.200Z,26.90
2023-06-16T08:03:37.831Z,27.00
2023-06-16T08:08:41.230Z,26.90
2023-06-16T08:13:44.445Z,26.60
2023-06-16T08:18:49.021Z,26.00
2023-06-16T08:23:53.702Z,25.30
2023-06-16T08:28:57.003Z,25.60
2023-06-16T08:34:02.283Z,25.70
2023-06-16T08:39:06.901Z,25.10
2023-06-16T08:44:11.670Z,25.00
2023-06-16T08:49:18.423Z,24.50
2023-06-16T08:54:27.340Z,23.90
2023-06-16T08:59:34.094Z,22.40
2023-06-16T09:04:38.945Z,23.30
2023-06-16T09:09:42.057Z,22.60
2023-06-16T09:14:50.774Z,21.30
2023-06-16T09:19:56.412Z,21.70
2023-06-16T09:25:00.640Z,20.60
2023-06-16T09:30:03.836Z,20.30
2023-06-16T09:35:22.096Z,19.40
2023-06-16T09:40:28.779Z,19.10
2023-06-16T09:45:33.559Z,19.30
2023-06-16T09:50:38.884Z,19.30
2023-06-16T09:55:43.215Z,19.10
2023-06-16T10:00:46.483Z,19.30
2023-06-16T10:05:55.950Z,19.20
2023-06-16T10:10:59.746Z,20.00
2023-06-16T10:16:07.737Z,21.10
2023-06-16T10:21:13.543Z,20.40
2023-06-16T10:26:17.281Z,19.20
2023-06-16T10:31:20.596Z,19.80
2023-06-16T10:36:25.991Z,19.30
2023-06-16T10:41:31.463Z,18.50
2023-06-16T10:46:34.831Z,18.00
2023-06-16T10:52:00.538Z,18.50
2023-06-16T11:02:20.988Z,17.00
2023-06-16T11:07:34.755Z,14.80
2023-06-16T11:12:38.986Z,16.60
2023-06-16T11:17:44.674Z,16.40
2023-06-16T11:22:50.952Z,16.30
2023-06-16T11:27:55.077Z,15.10
2023-06-16T11:32:58.624Z,15.80
2023-06-16T11:38:03.231Z,15.80
2023-06-16T11:43:07.281Z,15.70
2023-06-16T11:48:11.294Z,15.10
2023-06-16T11:53:17.728Z,15.40
2023-06-16T11:58:22.360Z,13.90
2023-06-16T12:03:26.154Z,14.40
2023-06-16T12:08:43.215Z,14.70
2023-06-16T12:13:46.946Z,13.70
2023-06-16T12:18:52.094Z,15.40
2023-06-16T12:23:57.677Z,14.50
2023-06-16T12:29:03.391Z,14.40
2023-06-16T12:34:06.613Z,14.40
2023-06-16T12:39:19.179Z,14.50
2023-06-16T12:44:22.308Z,15.10
2023-06-16T12:49:25.538Z,15.60
2023-06-16T12:54:30.275Z,15.60
2023-06-16T12:59:33.782Z,14.50
2023-06-16T13:04:37.072Z,14.50
2023-06-16T13:09:42.666Z,14.40
2023-06-16T13:14:46.155Z,14.70
2023-06-16T13:19:49.462Z,15.00
2023-06-16T13:24:53.953Z,15.50
2023-06-16T13:29:57.443Z,14.50
2023-06-16T13:35:00.923Z,15.20
2023-06-16T13:40:06.233Z,15.40
2023-06-16T13:45:10.231Z,15.90
2023-06-16T13:50:13.578Z,15.90
2023-06-16T13:55:18.216Z,15.60
2023-06-16T14:00:22.066Z,14.70
2023-06-16T14:05:25.512Z,15.00
2023-06-16T14:10:30.368Z,14.90
2023-06-16T14:15:35.308Z,14.70
2023-06-16T14:20:40.070Z,14.20
2023-06-16T14:25:46.781Z,13.80
2023-06-16T14:30:50.325Z,13.40
2023-06-16T14:35:53.523Z,14.00
2023-06-16T14:40:58.087Z,14.30
2023-06-16T14:46:01.218Z,14.40
2023-06-16T14:51:04.425Z,14.60
2023-06-16T14:56:09.025Z,14.90
2023-06-16T15:01:12.427Z,15.20
2023-06-16T15:06:16.945Z,15.20
2023-06-16T15:11:21.720Z,15.20
2023-06-16T15:16:25.289Z,15.10
2023-06-16T15:21:28.595Z,15.20
2023-06-16T15:26:34.532Z,15.30
2023-06-16T15:31:37.649Z,15.20
2023-06-16T15:36:41.187Z,15.00
2023-06-16T15:41:45.849Z,15.20
2023-06-16T15:46:49.065Z,15.50
2023-06-16T15:51:52.570Z,15.80
2023-06-16T15:56:57.109Z,16.90
2023-06-16T16:02:00.464Z,17.80
2023-06-16T16:07:03.837Z,18.20
2023-06-16T16:12:09.577Z,19.40
2023-06-16T16:17:13.926Z,20.40
2023-06-16T16:22:18.051Z,20.20
2023-06-16T16:27:22.652Z,20.30
2023-06-16T16:32:27.134Z,20.60
2023-06-16T16:37:30.293Z,20.70
2023-06-16T16:42:34.779Z,20.60
2023-06-16T16:47:38.221Z,20.40
2023-06-16T16:52:41.412Z,20.20
2023-06-16T16:57:45.943Z,20.00
2023-06-16T17:02:49.121Z,20.30
2023-06-16T17:07:52.483Z,20.40
2023-06-16T17:12:57.027Z,20.60
2023-06-16T17:18:00.289Z,20.30
2023-06-16T17:23:03.512Z,19.80
2023-06-16T17:28:08.127Z,19.50
2023-06-16T17:33:11.493Z,19.40
2023-06-16T17:38:14.864Z,19.50
2023-06-16T17:43:19.450Z,19.50
2023-06-16T17:48:22.620Z,19.70
2023-06-16T17:53:25.882Z,20.20
2023-06-16T17:58:30.610Z,20.50
2023-06-16T18:03:34.162Z,21.60
2023-06-16T18:08:37.421Z,21.60
2023-06-16T18:13:41.990Z,21.60
2023-06-16T18:18:45.115Z,22.60
2023-06-16T18:23:49.071Z,22.30
2023-06-16T18:28:53.784Z,22.50
2023-06-16T18:33:57.160Z,22.80
2023-06-16T18:39:15.716Z,22.20
2023-06-16T18:44:20.567Z,22.80
2023-06-16T18:49:23.894Z,22.40
2023-06-16T18:54:27.472Z,21.80
2023-06-16T18:59:33.738Z,21.70
2023-06-16T19:04:36.935Z,21.90
2023-06-16T19:09:40.126Z,21.90
2023-06-16T19:14:45.265Z,22.20
2023-06-16T19:19:48.509Z,22.40
2023-06-16T19:24:51.730Z,22.20
2023-06-16T19:29:56.495Z,22.30
2023-06-16T19:34:59.684Z,22.40
2023-06-16T19:40:06.731Z,22.50
2023-06-16T19:45:12.252Z,23.20
2023-06-16T19:50:15.671Z,23.10
2023-06-16T19:55:18.928Z,23.40
2023-06-16T20:00:23.607Z,23.30
2023-06-16T20:05:26.923Z,23.70
2023-06-16T20:10:30.986Z,23.60
2023-06-16T20:15:35.708Z,23.90
2023-06-16T20:20:39.962Z,24.50
2023-06-16T20:25:43.130Z,24.40
2023-06-16T20:30:47.847Z,24.50
2023-06-16T20:35:52.302Z,25.20
2023-06-16T20:40:56.918Z,24.90
2023-06-16T20:46:01.970Z,25.40
2023-06-16T20:51:05.925Z,25.60
2023-06-16T20:56:09.163Z,25.40
2023-06-16T21:01:15.231Z,25.60
2023-06-16T21:06:19.675Z,26.10
2023-06-16T21:11:26.650Z,25.80
2023-06-16T21:16:31.432Z,26.00
2023-06-16T21:21:34.692Z,26.50
2023-06-16T21:26:37.822Z,26.10
2023-06-16T21:31:42.338Z,26.00
2023-06-16T21:36:45.473Z,26.70
2023-06-16T21:41:48.860Z,26.50
2023-06-16T21:46:53.500Z,26.40
2023-06-16T21:51:56.673Z,27.10
2023-06-16T21:57:00.575Z,26.60
2023-06-16T22:02:05.374Z,26.80
2023-06-16T22:07:10.513Z,27.10
2023-06-16T22:12:14.655Z,27.00
2023-06-16T22:17:20.086Z,27.00
2023-06-16T22:22:24.208Z,27.10
2023-06-16T22:27:27.464Z,26.90
2023-06-16T22:32:32.074Z,26.80
2023-06-16T22:37:35.393Z,27.40
2023-06-16T22:42:38.612Z,27.30
2023-06-16T22:47:44.214Z,27.60
2023-06-16T22:52:47.739Z,27.90
2023-06-16T22:57:50.889Z,27.80
2023-06-16T23:02:55.502Z,27.80
2023-06-16T23:07:59.568Z,28.00
2023-06-16T23:13:02.914Z,28.00
2023-06-16T23:18:07.539Z,28.10
2023-06-16T23:23:11.052Z,28.80
2023-06-16T23:28:14.692Z,28.20
2023-06-16T23:33:21.486Z,28.60
2023-06-16T23:38:25.561Z,28.80
2023-06-16T23:43:28.738Z,28.50
2023-06-16T23:48:33.238Z,28.50
2023-06-16T23:53:36.377Z,28.30
2023-06-16T23:58:39.492Z,27.80
